sensor_id;sensor_type;location;lat;lon;timestamp;temperature;humidity
9329;DHT22;4703;48.748;19.142;2022-08-11T00:01:26;17.80;83.60
9329;DHT22;4703;48.748;19.142;2022-08-11T00:03:58;17.80;84.20
9329;DHT22;4703;48.748;19.142;2022-08-11T00:06:32;17.70;85.00
9329;DHT22;4703;48.748;19.142;2022-08-11T00:09:04;17.80;85.20
9329;DHT22;4703;48.748;19.142;2022-08-11T00:11:40;17.70;85.60
9329;DHT22;4703;48.748;19.142;2022-08-11T00:14:24;17.60;86.10
9329;DHT22;4703;48.748;19.142;2022-08-11T00:17:08;17.60;86.60
9329;DHT22;4703;48.748;19.142;2022-08-11T00:19:43;17.50;86.80
9329;DHT22;4703;48.748;19.142;2022-08-11T00:22:32;17.60;87.10
9329;DHT22;4703;48.748;19.142;2022-08-11T00:25:11;17.80;87.40
9329;DHT22;4703;48.748;19.142;2022-08-11T00:27:43;17.50;87.40
9329;DHT22;4703;48.748;19.142;2022-08-11T00:30:12;17.40;87.50
9329;DHT22;4703;48.748;19.142;2022-08-11T00:32:45;17.30;88.20
9329;DHT22;4703;48.748;19.142;2022-08-11T00:35:25;17.70;89.30
9329;DHT22;4703;48.748;19.142;2022-08-11T00:38:13;17.20;89.10
9329;DHT22;4703;48.748;19.142;2022-08-11T00:40:45;19.10;90.50
9329;DHT22;4703;48.748;19.142;2022-08-11T00:43:44;17.40;90.20
9329;DHT22;4703;48.748;19.142;2022-08-11T01:10:44;16.90;91.10
9329;DHT22;4703;48.748;19.142;2022-08-11T01:23:16;16.70;91.50
9329;DHT22;4703;48.748;19.142;2022-08-11T01:48:31;16.50;92.60
9329;DHT22;4703;48.748;19.142;2022-08-11T01:54:00;16.40;92.90
9329;DHT22;4703;48.748;19.142;2022-08-11T01:59:35;16.40;92.90
9329;DHT22;4703;48.748;19.142;2022-08-11T02:05:46;16.30;93.50
9329;DHT22;4703;48.748;19.142;2022-08-11T02:11:26;16.20;93.80
9329;DHT22;4703;48.748;19.142;2022-08-11T02:14:10;16.10;93.90
9329;DHT22;4703;48.748;19.142;2022-08-11T02:23:32;16.00;94.50
9329;DHT22;4703;48.748;19.142;2022-08-11T02:32:10;15.80;95.00
9329;DHT22;4703;48.748;19.142;2022-08-11T02:35:27;15.80;95.10
9329;DHT22;4703;48.748;19.142;2022-08-11T02:44:09;15.60;95.60
9329;DHT22;4703;48.748;19.142;2022-08-11T02:49:44;15.50;95.90
9329;DHT22;4703;48.748;19.142;2022-08-11T02:52:59;15.50;96.10
9329;DHT22;4703;48.748;19.142;2022-08-11T03:01:42;15.40;96.40
9329;DHT22;4703;48.748;19.142;2022-08-11T03:04:21;15.40;96.40
9329;DHT22;4703;48.748;19.142;2022-08-11T03:07:22;15.40;96.50
9329;DHT22;4703;48.748;19.142;2022-08-11T03:19:14;15.20;97.10
9329;DHT22;4703;48.748;19.142;2022-08-11T03:24:58;15.30;97.20
9329;DHT22;4703;48.748;19.142;2022-08-11T03:30:53;15.20;97.10
9329;DHT22;4703;48.748;19.142;2022-08-11T03:33:40;15.10;97.40
9329;DHT22;4703;48.748;19.142;2022-08-11T03:42:47;15.00;97.50
9329;DHT22;4703;48.748;19.142;2022-08-11T03:48:19;15.00;97.50
9329;DHT22;4703;48.748;19.142;2022-08-11T03:51:11;15.00;97.80
9329;DHT22;4703;48.748;19.142;2022-08-11T04:03:03;15.10;97.50
9329;DHT22;4703;48.748;19.142;2022-08-11T04:12:30;15.20;97.10
9329;DHT22;4703;48.748;19.142;2022-08-11T04:25:01;15.10;97.70
9329;DHT22;4703;48.748;19.142;2022-08-11T04:37:28;15.10;97.80
9329;DHT22;4703;48.748;19.142;2022-08-11T04:40:25;15.20;97.60
9329;DHT22;4703;48.748;19.142;2022-08-11T04:59:07;15.20;98.30
9329;DHT22;4703;48.748;19.142;2022-08-11T05:05:27;15.20;98.50
9329;DHT22;4703;48.748;19.142;2022-08-11T05:14:29;15.40;98.70
9329;DHT22;4703;48.748;19.142;2022-08-11T05:17:34;15.40;98.30
9329;DHT22;4703;48.748;19.142;2022-08-11T05:20:24;15.50;98.10
9329;DHT22;4703;48.748;19.142;2022-08-11T05:23:10;15.50;98.10
9329;DHT22;4703;48.748;19.142;2022-08-11T05:25:59;15.60;98.20
9329;DHT22;4703;48.748;19.142;2022-08-11T05:29:27;15.60;98.30
9329;DHT22;4703;48.748;19.142;2022-08-11T05:32:40;15.70;97.60
9329;DHT22;4703;48.748;19.142;2022-08-11T05:35:43;15.80;97.30
9329;DHT22;4703;48.748;19.142;2022-08-11T05:38:31;15.90;97.00
9329;DHT22;4703;48.748;19.142;2022-08-11T05:41:22;16.00;97.00
9329;DHT22;4703;48.748;19.142;2022-08-11T05:44:09;16.10;97.00
9329;DHT22;4703;48.748;19.142;2022-08-11T05:47:03;16.10;96.60
9329;DHT22;4703;48.748;19.142;2022-08-11T05:49:50;16.20;96.80
9329;DHT22;4703;48.748;19.142;2022-08-11T05:52:44;16.20;96.70
9329;DHT22;4703;48.748;19.142;2022-08-11T05:55:38;16.30;96.50
9329;DHT22;4703;48.748;19.142;2022-08-11T05:58:38;16.40;96.40
9329;DHT22;4703;48.748;19.142;2022-08-11T06:01:13;16.40;96.00
9329;DHT22;4703;48.748;19.142;2022-08-11T06:03:58;16.50;96.10
9329;DHT22;4703;48.748;19.142;2022-08-11T06:07:00;16.50;96.50
9329;DHT22;4703;48.748;19.142;2022-08-11T06:14:55;16.70;96.90
9329;DHT22;4703;48.748;19.142;2022-08-11T06:17:28;16.70;96.40
9329;DHT22;4703;48.748;19.142;2022-08-11T06:20:06;16.80;96.50
9329;DHT22;4703;48.748;19.142;2022-08-11T06:22:39;16.80;96.30
9329;DHT22;4703;48.748;19.142;2022-08-11T06:25:09;16.90;96.40
9329;DHT22;4703;48.748;19.142;2022-08-11T06:27:39;17.00;96.90
9329;DHT22;4703;48.748;19.142;2022-08-11T06:30:09;17.00;96.90
9329;DHT22;4703;48.748;19.142;2022-08-11T06:32:44;17.10;96.30
9329;DHT22;4703;48.748;19.142;2022-08-11T06:38:37;17.20;96.40
9329;DHT22;4703;48.748;19.142;2022-08-11T06:41:17;17.30;96.40
9329;DHT22;4703;48.748;19.142;2022-08-11T06:46:47;17.40;95.50
9329;DHT22;4703;48.748;19.142;2022-08-11T06:49:19;17.50;96.10
9329;DHT22;4703;48.748;19.142;2022-08-11T06:52:09;17.60;95.60
9329;DHT22;4703;48.748;19.142;2022-08-11T06:55:13;17.70;95.70
9329;DHT22;4703;48.748;19.142;2022-08-11T06:58:28;17.70;95.20
9329;DHT22;4703;48.748;19.142;2022-08-11T07:01:28;17.80;96.00
9329;DHT22;4703;48.748;19.142;2022-08-11T07:04:08;17.90;96.60
9329;DHT22;4703;48.748;19.142;2022-08-11T07:10:24;18.10;96.70
9329;DHT22;4703;48.748;19.142;2022-08-11T07:13:15;18.20;97.20
9329;DHT22;4703;48.748;19.142;2022-08-11T07:16:14;18.20;96.70
9329;DHT22;4703;48.748;19.142;2022-08-11T07:18:55;18.30;95.30
9329;DHT22;4703;48.748;19.142;2022-08-11T07:21:46;18.30;95.10
9329;DHT22;4703;48.748;19.142;2022-08-11T07:25:04;18.50;94.90
9329;DHT22;4703;48.748;19.142;2022-08-11T07:27:55;18.50;94.40
9329;DHT22;4703;48.748;19.142;2022-08-11T07:30:45;18.60;94.20
9329;DHT22;4703;48.748;19.142;2022-08-11T07:33:24;18.70;94.60
9329;DHT22;4703;48.748;19.142;2022-08-11T07:36:15;18.70;93.90
9329;DHT22;4703;48.748;19.142;2022-08-11T07:38:46;18.80;93.00
9329;DHT22;4703;48.748;19.142;2022-08-11T07:41:22;18.90;93.50
9329;DHT22;4703;48.748;19.142;2022-08-11T07:43:54;18.90;93.00
9329;DHT22;4703;48.748;19.142;2022-08-11T07:46:42;19.30;93.20
9329;DHT22;4703;48.748;19.142;2022-08-11T07:49:33;19.10;92.20
9329;DHT22;4703;48.748;19.142;2022-08-11T07:52:20;19.20;91.90
9329;DHT22;4703;48.748;19.142;2022-08-11T07:55:04;19.30;91.00
9329;DHT22;4703;48.748;19.142;2022-08-11T07:57:34;19.40;90.20
9329;DHT22;4703;48.748;19.142;2022-08-11T08:00:52;19.50;90.50
9329;DHT22;4703;48.748;19.142;2022-08-11T08:03:48;19.60;90.30
9329;DHT22;4703;48.748;19.142;2022-08-11T08:06:35;19.70;90.00
9329;DHT22;4703;48.748;19.142;2022-08-11T08:09:23;19.80;90.50
9329;DHT22;4703;48.748;19.142;2022-08-11T08:12:10;20.00;89.50
9329;DHT22;4703;48.748;19.142;2022-08-11T08:14:57;20.00;87.30
9329;DHT22;4703;48.748;19.142;2022-08-11T08:17:43;20.10;86.60
9329;DHT22;4703;48.748;19.142;2022-08-11T08:20:41;20.20;86.50
9329;DHT22;4703;48.748;19.142;2022-08-11T08:23:11;20.30;85.40
9329;DHT22;4703;48.748;19.142;2022-08-11T08:25:41;20.30;86.70
9329;DHT22;4703;48.748;19.142;2022-08-11T08:28:13;20.40;86.20
9329;DHT22;4703;48.748;19.142;2022-08-11T08:30:43;20.60;84.00
9329;DHT22;4703;48.748;19.142;2022-08-11T08:33:20;20.70;82.50
9329;DHT22;4703;48.748;19.142;2022-08-11T08:36:05;20.70;83.80
9329;DHT22;4703;48.748;19.142;2022-08-11T08:38:47;20.80;81.70
9329;DHT22;4703;48.748;19.142;2022-08-11T08:41:23;20.90;82.80
9329;DHT22;4703;48.748;19.142;2022-08-11T08:43:57;21.10;80.60
9329;DHT22;4703;48.748;19.142;2022-08-11T08:46:48;21.10;78.90
9329;DHT22;4703;48.748;19.142;2022-08-11T08:49:21;21.20;78.60
9329;DHT22;4703;48.748;19.142;2022-08-11T08:51:53;21.40;77.10
9329;DHT22;4703;48.748;19.142;2022-08-11T08:54:42;21.60;75.30
9329;DHT22;4703;48.748;19.142;2022-08-11T08:57:11;21.70;74.60
9329;DHT22;4703;48.748;19.142;2022-08-11T08:59:41;21.90;73.00
9329;DHT22;4703;48.748;19.142;2022-08-11T09:02:17;22.00;73.10
9329;DHT22;4703;48.748;19.142;2022-08-11T09:05:02;22.10;72.60
9329;DHT22;4703;48.748;19.142;2022-08-11T09:07:31;22.10;72.00
9329;DHT22;4703;48.748;19.142;2022-08-11T09:10:09;22.10;70.10
9329;DHT22;4703;48.748;19.142;2022-08-11T09:12:39;22.10;70.10
9329;DHT22;4703;48.748;19.142;2022-08-11T09:15:09;22.10;70.90
9329;DHT22;4703;48.748;19.142;2022-08-11T09:17:40;22.10;71.50
9329;DHT22;4703;48.748;19.142;2022-08-11T09:20:17;22.00;71.40
9329;DHT22;4703;48.748;19.142;2022-08-11T09:22:47;22.00;71.00
9329;DHT22;4703;48.748;19.142;2022-08-11T09:25:59;22.00;70.40
9329;DHT22;4703;48.748;19.142;2022-08-11T09:28:46;22.00;72.00
9329;DHT22;4703;48.748;19.142;2022-08-11T09:31:15;22.00;74.10
9329;DHT22;4703;48.748;19.142;2022-08-11T09:33:50;22.00;73.70
9329;DHT22;4703;48.748;19.142;2022-08-11T09:36:19;22.00;73.10
9329;DHT22;4703;48.748;19.142;2022-08-11T09:39:05;22.10;72.70
9329;DHT22;4703;48.748;19.142;2022-08-11T09:41:51;22.10;73.90
9329;DHT22;4703;48.748;19.142;2022-08-11T09:44:33;22.10;72.90
9329;DHT22;4703;48.748;19.142;2022-08-11T09:47:22;22.20;73.90
9329;DHT22;4703;48.748;19.142;2022-08-11T09:49:54;22.20;73.60
9329;DHT22;4703;48.748;19.142;2022-08-11T09:52:26;22.20;70.60
9329;DHT22;4703;48.748;19.142;2022-08-11T09:54:55;22.20;71.70
9329;DHT22;4703;48.748;19.142;2022-08-11T09:57:24;22.20;71.60
9329;DHT22;4703;48.748;19.142;2022-08-11T10:00:12;22.20;69.40
9329;DHT22;4703;48.748;19.142;2022-08-11T10:02:51;22.10;69.80
9329;DHT22;4703;48.748;19.142;2022-08-11T10:05:20;22.10;69.40
9329;DHT22;4703;48.748;19.142;2022-08-11T10:08:09;22.10;69.20
9329;DHT22;4703;48.748;19.142;2022-08-11T10:10:39;22.00;69.30
9329;DHT22;4703;48.748;19.142;2022-08-11T10:13:10;22.00;70.30
9329;DHT22;4703;48.748;19.142;2022-08-11T10:16:07;21.90;70.10
9329;DHT22;4703;48.748;19.142;2022-08-11T10:18:44;21.90;71.30
9329;DHT22;4703;48.748;19.142;2022-08-11T10:21:27;21.90;72.70
9329;DHT22;4703;48.748;19.142;2022-08-11T10:23:58;21.90;70.80
9329;DHT22;4703;48.748;19.142;2022-08-11T10:26:45;22.00;71.20
9329;DHT22;4703;48.748;19.142;2022-08-11T10:29:32;22.10;72.40
9329;DHT22;4703;48.748;19.142;2022-08-11T10:32:24;22.20;71.30
9329;DHT22;4703;48.748;19.142;2022-08-11T10:35:24;22.40;70.00
9329;DHT22;4703;48.748;19.142;2022-08-11T10:37:52;22.60;68.20
9329;DHT22;4703;48.748;19.142;2022-08-11T10:40:39;22.80;69.40
9329;DHT22;4703;48.748;19.142;2022-08-11T10:43:07;22.90;68.10
9329;DHT22;4703;48.748;19.142;2022-08-11T10:45:45;23.10;68.10
9329;DHT22;4703;48.748;19.142;2022-08-11T10:48:36;23.30;66.20
9329;DHT22;4703;48.748;19.142;2022-08-11T10:51:04;23.40;65.90
9329;DHT22;4703;48.748;19.142;2022-08-11T10:54:04;23.50;68.10
9329;DHT22;4703;48.748;19.142;2022-08-11T10:56:50;23.50;68.20
9329;DHT22;4703;48.748;19.142;2022-08-11T10:59:37;23.50;67.00
9329;DHT22;4703;48.748;19.142;2022-08-11T11:02:04;23.50;66.70
9329;DHT22;4703;48.748;19.142;2022-08-11T11:04:57;23.60;67.40
9329;DHT22;4703;48.748;19.142;2022-08-11T11:07:55;23.70;64.70
9329;DHT22;4703;48.748;19.142;2022-08-11T11:10:29;24.10;66.80
9329;DHT22;4703;48.748;19.142;2022-08-11T11:12:58;24.40;67.30
9329;DHT22;4703;48.748;19.142;2022-08-11T11:15:45;24.50;64.00
9329;DHT22;4703;48.748;19.142;2022-08-11T11:18:34;24.60;64.10
9329;DHT22;4703;48.748;19.142;2022-08-11T11:21:06;24.60;64.90
9329;DHT22;4703;48.748;19.142;2022-08-11T11:23:49;24.60;65.50
9329;DHT22;4703;48.748;19.142;2022-08-11T11:37:50;26.00;63.10
9329;DHT22;4703;48.748;19.142;2022-08-11T11:40:30;26.30;62.00
9329;DHT22;4703;48.748;19.142;2022-08-11T11:42:59;26.30;60.50
9329;DHT22;4703;48.748;19.142;2022-08-11T11:45:27;26.30;61.90
9329;DHT22;4703;48.748;19.142;2022-08-11T11:47:56;26.40;60.70
9329;DHT22;4703;48.748;19.142;2022-08-11T11:50:30;26.40;61.70
9329;DHT22;4703;48.748;19.142;2022-08-11T11:53:06;26.40;59.30
9329;DHT22;4703;48.748;19.142;2022-08-11T11:55:34;26.70;59.30
9329;DHT22;4703;48.748;19.142;2022-08-11T11:58:03;26.10;59.60
9329;DHT22;4703;48.748;19.142;2022-08-11T12:00:50;25.90;58.90
9329;DHT22;4703;48.748;19.142;2022-08-11T12:03:37;25.70;59.60
9329;DHT22;4703;48.748;19.142;2022-08-11T12:06:07;25.60;60.50
9329;DHT22;4703;48.748;19.142;2022-08-11T12:08:36;25.40;57.60
9329;DHT22;4703;48.748;19.142;2022-08-11T12:11:06;25.20;57.70
9329;DHT22;4703;48.748;19.142;2022-08-11T12:13:57;25.10;58.70
9329;DHT22;4703;48.748;19.142;2022-08-11T12:16:26;25.00;60.30
9329;DHT22;4703;48.748;19.142;2022-08-11T12:19:04;25.00;62.10
9329;DHT22;4703;48.748;19.142;2022-08-11T12:21:34;25.20;59.30
9329;DHT22;4703;48.748;19.142;2022-08-11T12:24:03;25.30;57.40
9329;DHT22;4703;48.748;19.142;2022-08-11T12:26:56;25.50;58.50
9329;DHT22;4703;48.748;19.142;2022-08-11T12:29:48;26.00;58.00
9329;DHT22;4703;48.748;19.142;2022-08-11T12:32:37;26.40;57.50
9329;DHT22;4703;48.748;19.142;2022-08-11T12:35:08;26.60;56.60
9329;DHT22;4703;48.748;19.142;2022-08-11T12:37:39;26.80;55.10
9329;DHT22;4703;48.748;19.142;2022-08-11T12:40:15;27.00;53.80
9329;DHT22;4703;48.748;19.142;2022-08-11T12:43:27;27.10;53.20
9329;DHT22;4703;48.748;19.142;2022-08-11T12:46:24;26.90;53.00
9329;DHT22;4703;48.748;19.142;2022-08-11T12:48:59;26.60;53.70
9329;DHT22;4703;48.748;19.142;2022-08-11T12:51:51;26.40;52.80
9329;DHT22;4703;48.748;19.142;2022-08-11T12:54:50;26.20;52.70
9329;DHT22;4703;48.748;19.142;2022-08-11T12:57:37;26.10;52.80
9329;DHT22;4703;48.748;19.142;2022-08-11T13:00:25;25.90;54.20
9329;DHT22;4703;48.748;19.142;2022-08-11T13:03:12;25.80;53.70
9329;DHT22;4703;48.748;19.142;2022-08-11T13:06:00;25.60;55.00
9329;DHT22;4703;48.748;19.142;2022-08-11T13:08:32;25.50;54.90
9329;DHT22;4703;48.748;19.142;2022-08-11T13:11:02;25.40;56.10
9329;DHT22;4703;48.748;19.142;2022-08-11T13:13:49;25.20;58.30
9329;DHT22;4703;48.748;19.142;2022-08-11T13:16:34;25.10;58.10
9329;DHT22;4703;48.748;19.142;2022-08-11T13:19:22;25.10;59.00
9329;DHT22;4703;48.748;19.142;2022-08-11T13:21:51;25.00;61.10
9329;DHT22;4703;48.748;19.142;2022-08-11T13:24:19;24.90;62.00
9329;DHT22;4703;48.748;19.142;2022-08-11T13:26:48;24.90;61.50
9329;DHT22;4703;48.748;19.142;2022-08-11T13:29:24;25.00;62.20
9329;DHT22;4703;48.748;19.142;2022-08-11T13:31:55;25.10;61.20
9329;DHT22;4703;48.748;19.142;2022-08-11T13:34:26;25.10;61.80
9329;DHT22;4703;48.748;19.142;2022-08-11T13:36:59;25.20;61.30
9329;DHT22;4703;48.748;19.142;2022-08-11T13:39:29;25.20;64.30
9329;DHT22;4703;48.748;19.142;2022-08-11T13:41:58;25.10;61.20
9329;DHT22;4703;48.748;19.142;2022-08-11T13:44:29;25.10;60.40
9329;DHT22;4703;48.748;19.142;2022-08-11T13:47:04;25.00;59.70
9329;DHT22;4703;48.748;19.142;2022-08-11T13:49:35;25.00;62.50
9329;DHT22;4703;48.748;19.142;2022-08-11T13:52:09;25.00;62.80
9329;DHT22;4703;48.748;19.142;2022-08-11T13:54:39;25.00;63.30
9329;DHT22;4703;48.748;19.142;2022-08-11T13:57:07;25.00;64.90
9329;DHT22;4703;48.748;19.142;2022-08-11T13:59:57;25.00;62.80
9329;DHT22;4703;48.748;19.142;2022-08-11T14:02:53;25.00;61.40
9329;DHT22;4703;48.748;19.142;2022-08-11T14:05:26;25.20;62.60
9329;DHT22;4703;48.748;19.142;2022-08-11T14:08:09;25.30;62.90
9329;DHT22;4703;48.748;19.142;2022-08-11T14:11:01;25.50;62.30
9329;DHT22;4703;48.748;19.142;2022-08-11T14:14:09;25.60;61.50
9329;DHT22;4703;48.748;19.142;2022-08-11T14:16:47;25.90;61.30
9329;DHT22;4703;48.748;19.142;2022-08-11T14:19:20;26.10;60.30
9329;DHT22;4703;48.748;19.142;2022-08-11T14:21:50;26.10;58.60
9329;DHT22;4703;48.748;19.142;2022-08-11T14:24:39;26.10;57.60
9329;DHT22;4703;48.748;19.142;2022-08-11T14:27:09;26.00;57.80
9329;DHT22;4703;48.748;19.142;2022-08-11T14:29:58;25.90;56.50
9329;DHT22;4703;48.748;19.142;2022-08-11T14:32:26;25.60;56.50
9329;DHT22;4703;48.748;19.142;2022-08-11T14:34:54;25.60;55.60
9329;DHT22;4703;48.748;19.142;2022-08-11T14:37:23;25.60;56.60
9329;DHT22;4703;48.748;19.142;2022-08-11T14:39:57;25.90;56.30
9329;DHT22;4703;48.748;19.142;2022-08-11T14:42:29;26.10;55.20
9329;DHT22;4703;48.748;19.142;2022-08-11T14:45:16;26.20;57.10
9329;DHT22;4703;48.748;19.142;2022-08-11T14:48:22;26.20;56.40
9329;DHT22;4703;48.748;19.142;2022-08-11T14:50:49;26.00;57.60
9329;DHT22;4703;48.748;19.142;2022-08-11T14:53:21;25.80;59.10
9329;DHT22;4703;48.748;19.142;2022-08-11T14:55:49;25.60;59.90
9329;DHT22;4703;48.748;19.142;2022-08-11T14:58:38;25.70;62.20
9329;DHT22;4703;48.748;19.142;2022-08-11T15:01:06;26.30;61.60
9329;DHT22;4703;48.748;19.142;2022-08-11T15:03:54;26.80;59.40
9329;DHT22;4703;48.748;19.142;2022-08-11T15:06:42;27.00;57.50
9329;DHT22;4703;48.748;19.142;2022-08-11T15:09:09;26.80;57.90
9329;DHT22;4703;48.748;19.142;2022-08-11T15:11:36;26.70;58.60
9329;DHT22;4703;48.748;19.142;2022-08-11T15:14:22;26.80;59.60
9329;DHT22;4703;48.748;19.142;2022-08-11T15:17:09;27.00;58.50
9329;DHT22;4703;48.748;19.142;2022-08-11T15:19:42;26.80;57.90
9329;DHT22;4703;48.748;19.142;2022-08-11T15:22:29;26.50;58.30
9329;DHT22;4703;48.748;19.142;2022-08-11T15:25:15;25.50;59.80
9329;DHT22;4703;48.748;19.142;2022-08-11T15:27:45;25.40;60.80
9329;DHT22;4703;48.748;19.142;2022-08-11T15:30:33;25.00;63.40
9329;DHT22;4703;48.748;19.142;2022-08-11T15:33:20;24.50;64.20
9329;DHT22;4703;48.748;19.142;2022-08-11T15:36:08;24.10;66.40
9329;DHT22;4703;48.748;19.142;2022-08-11T15:39:44;23.80;66.60
9329;DHT22;4703;48.748;19.142;2022-08-11T15:42:35;23.50;66.70
9329;DHT22;4703;48.748;19.142;2022-08-11T15:45:14;23.40;68.70
9329;DHT22;4703;48.748;19.142;2022-08-11T15:48:06;23.30;67.60
9329;DHT22;4703;48.748;19.142;2022-08-11T15:50:40;23.30;69.70
9329;DHT22;4703;48.748;19.142;2022-08-11T15:53:19;23.30;68.90
9329;DHT22;4703;48.748;19.142;2022-08-11T15:55:50;23.30;68.70
9329;DHT22;4703;48.748;19.142;2022-08-11T15:58:19;23.80;67.50
9329;DHT22;4703;48.748;19.142;2022-08-11T16:01:06;24.50;68.70
9329;DHT22;4703;48.748;19.142;2022-08-11T16:03:57;25.10;65.00
9329;DHT22;4703;48.748;19.142;2022-08-11T16:06:59;25.90;63.70
9329;DHT22;4703;48.748;19.142;2022-08-11T16:12:29;26.90;59.60
9329;DHT22;4703;48.748;19.142;2022-08-11T16:15:04;27.30;61.20
9329;DHT22;4703;48.748;19.142;2022-08-11T16:18:02;27.70;58.50
9329;DHT22;4703;48.748;19.142;2022-08-11T16:20:32;28.20;58.60
9329;DHT22;4703;48.748;19.142;2022-08-11T16:23:02;28.60;57.90
9329;DHT22;4703;48.748;19.142;2022-08-11T16:25:34;28.90;57.30
9329;DHT22;4703;48.748;19.142;2022-08-11T16:28:22;29.20;57.60
9329;DHT22;4703;48.748;19.142;2022-08-11T16:30:50;29.50;55.50
9329;DHT22;4703;48.748;19.142;2022-08-11T16:33:20;29.70;54.90
9329;DHT22;4703;48.748;19.142;2022-08-11T16:36:10;29.90;51.60
9329;DHT22;4703;48.748;19.142;2022-08-11T16:38:58;30.00;51.60
9329;DHT22;4703;48.748;19.142;2022-08-11T16:41:29;29.60;53.40
9329;DHT22;4703;48.748;19.142;2022-08-11T16:44:17;29.20;52.90
9329;DHT22;4703;48.748;19.142;2022-08-11T16:47:14;28.60;52.60
9329;DHT22;4703;48.748;19.142;2022-08-11T16:49:46;27.80;54.80
9329;DHT22;4703;48.748;19.142;2022-08-11T16:52:19;27.00;55.90
9329;DHT22;4703;48.748;19.142;2022-08-11T16:54:47;26.20;57.60
9329;DHT22;4703;48.748;19.142;2022-08-11T16:57:22;25.70;58.80
9329;DHT22;4703;48.748;19.142;2022-08-11T17:00:13;25.30;60.60
9329;DHT22;4703;48.748;19.142;2022-08-11T17:02:44;24.90;59.60
9329;DHT22;4703;48.748;19.142;2022-08-11T17:05:50;24.70;61.20
9329;DHT22;4703;48.748;19.142;2022-08-11T17:08:56;24.30;62.00
9329;DHT22;4703;48.748;19.142;2022-08-11T17:11:51;24.00;62.70
9329;DHT22;4703;48.748;19.142;2022-08-11T17:14:52;23.80;63.50
9329;DHT22;4703;48.748;19.142;2022-08-11T17:17:32;23.60;64.60
9329;DHT22;4703;48.748;19.142;2022-08-11T17:20:05;23.40;67.00
9329;DHT22;4703;48.748;19.142;2022-08-11T17:22:56;23.20;66.80
9329;DHT22;4703;48.748;19.142;2022-08-11T17:25:43;23.10;67.20
9329;DHT22;4703;48.748;19.142;2022-08-11T17:28:29;23.00;67.10
9329;DHT22;4703;48.748;19.142;2022-08-11T17:30:57;22.90;68.50
9329;DHT22;4703;48.748;19.142;2022-08-11T17:33:49;22.80;68.50
9329;DHT22;4703;48.748;19.142;2022-08-11T17:36:36;22.70;69.30
9329;DHT22;4703;48.748;19.142;2022-08-11T17:39:11;22.60;71.20
9329;DHT22;4703;48.748;19.142;2022-08-11T17:41:39;22.50;71.50
9329;DHT22;4703;48.748;19.142;2022-08-11T17:44:26;22.40;72.50
9329;DHT22;4703;48.748;19.142;2022-08-11T17:47:12;22.30;73.10
9329;DHT22;4703;48.748;19.142;2022-08-11T17:49:59;22.10;74.30
9329;DHT22;4703;48.748;19.142;2022-08-11T17:52:44;22.00;73.90
9329;DHT22;4703;48.748;19.142;2022-08-11T17:55:33;21.90;73.90
9329;DHT22;4703;48.748;19.142;2022-08-11T17:58:20;21.70;73.30
9329;DHT22;4703;48.748;19.142;2022-08-11T18:01:08;21.70;71.60
9329;DHT22;4703;48.748;19.142;2022-08-11T18:03:39;21.60;73.50
9329;DHT22;4703;48.748;19.142;2022-08-11T18:06:22;21.50;75.80
9329;DHT22;4703;48.748;19.142;2022-08-11T18:09:05;21.40;76.70
9329;DHT22;4703;48.748;19.142;2022-08-11T18:11:56;21.30;77.40
9329;DHT22;4703;48.748;19.142;2022-08-11T18:14:48;21.20;77.30
9329;DHT22;4703;48.748;19.142;2022-08-11T18:17:36;21.20;79.30
9329;DHT22;4703;48.748;19.142;2022-08-11T18:20:22;21.10;80.20
9329;DHT22;4703;48.748;19.142;2022-08-11T18:23:13;21.00;80.40
9329;DHT22;4703;48.748;19.142;2022-08-11T18:26:15;20.90;80.10
9329;DHT22;4703;48.748;19.142;2022-08-11T18:29:03;20.80;81.20
9329;DHT22;4703;48.748;19.142;2022-08-11T18:31:53;20.70;82.80
9329;DHT22;4703;48.748;19.142;2022-08-11T18:34:49;20.60;84.30
9329;DHT22;4703;48.748;19.142;2022-08-11T18:37:44;20.50;86.10
9329;DHT22;4703;48.748;19.142;2022-08-11T18:40:31;20.30;87.20
9329;DHT22;4703;48.748;19.142;2022-08-11T18:43:21;20.30;88.30
9329;DHT22;4703;48.748;19.142;2022-08-11T18:46:10;20.20;89.70
9329;DHT22;4703;48.748;19.142;2022-08-11T18:49:01;20.10;90.20
9329;DHT22;4703;48.748;19.142;2022-08-11T18:52:13;20.00;90.70
9329;DHT22;4703;48.748;19.142;2022-08-11T18:55:00;19.90;91.00
9329;DHT22;4703;48.748;19.142;2022-08-11T18:57:49;19.80;91.30
9329;DHT22;4703;48.748;19.142;2022-08-11T19:00:37;19.70;91.50
9329;DHT22;4703;48.748;19.142;2022-08-11T19:03:26;19.60;91.30
9329;DHT22;4703;48.748;19.142;2022-08-11T19:06:17;19.60;90.90
9329;DHT22;4703;48.748;19.142;2022-08-11T19:09:09;19.60;90.80
9329;DHT22;4703;48.748;19.142;2022-08-11T19:11:58;19.50;91.30
9329;DHT22;4703;48.748;19.142;2022-08-11T19:14:47;19.50;91.80
9329;DHT22;4703;48.748;19.142;2022-08-11T19:17:37;19.40;91.30
9329;DHT22;4703;48.748;19.142;2022-08-11T19:20:27;19.20;91.60
9329;DHT22;4703;48.748;19.142;2022-08-11T19:23:20;19.20;92.00
9329;DHT22;4703;48.748;19.142;2022-08-11T19:26:10;19.10;92.50
9329;DHT22;4703;48.748;19.142;2022-08-11T19:28:57;19.10;94.40
9329;DHT22;4703;48.748;19.142;2022-08-11T19:32:04;19.00;95.70
9329;DHT22;4703;48.748;19.142;2022-08-11T19:34:52;19.00;96.20
9329;DHT22;4703;48.748;19.142;2022-08-11T19:37:40;18.90;96.90
9329;DHT22;4703;48.748;19.142;2022-08-11T19:40:27;18.90;97.50
9329;DHT22;4703;48.748;19.142;2022-08-11T19:43:15;18.80;97.90
9329;DHT22;4703;48.748;19.142;2022-08-11T19:46:04;18.80;98.30
9329;DHT22;4703;48.748;19.142;2022-08-11T19:48:52;17.60;98.20
9329;DHT22;4703;48.748;19.142;2022-08-11T19:51:41;19.70;99.70
9329;DHT22;4703;48.748;19.142;2022-08-11T19:54:32;18.60;98.70
9329;DHT22;4703;48.748;19.142;2022-08-11T19:57:22;18.50;99.00
9329;DHT22;4703;48.748;19.142;2022-08-11T20:00:15;19.40;99.50
9329;DHT22;4703;48.748;19.142;2022-08-11T20:03:06;18.40;99.10
9329;DHT22;4703;48.748;19.142;2022-08-11T20:05:55;18.40;98.60
9329;DHT22;4703;48.748;19.142;2022-08-11T20:08:43;18.30;98.70
9329;DHT22;4703;48.748;19.142;2022-08-11T20:11:35;18.20;98.50
9329;DHT22;4703;48.748;19.142;2022-08-11T20:14:27;18.20;98.50
9329;DHT22;4703;48.748;19.142;2022-08-11T20:17:15;18.60;99.00
9329;DHT22;4703;48.748;19.142;2022-08-11T20:20:06;19.30;99.50
9329;DHT22;4703;48.748;19.142;2022-08-11T20:22:54;18.00;98.20
9329;DHT22;4703;48.748;19.142;2022-08-11T20:25:42;17.90;97.50
9329;DHT22;4703;48.748;19.142;2022-08-11T20:28:49;17.80;97.00
9329;DHT22;4703;48.748;19.142;2022-08-11T20:31:36;17.80;96.80
9329;DHT22;4703;48.748;19.142;2022-08-11T20:34:23;17.80;97.10
9329;DHT22;4703;48.748;19.142;2022-08-11T20:37:12;17.70;96.80
9329;DHT22;4703;48.748;19.142;2022-08-11T20:39:58;17.70;96.70
9329;DHT22;4703;48.748;19.142;2022-08-11T20:42:50;17.70;96.80
9329;DHT22;4703;48.748;19.142;2022-08-11T20:45:56;17.60;97.00
9329;DHT22;4703;48.748;19.142;2022-08-11T20:48:43;17.60;97.10
9329;DHT22;4703;48.748;19.142;2022-08-11T20:51:31;17.50;97.00
9329;DHT22;4703;48.748;19.142;2022-08-11T20:54:18;17.50;97.20
9329;DHT22;4703;48.748;19.142;2022-08-11T20:57:13;17.50;97.80
9329;DHT22;4703;48.748;19.142;2022-08-11T21:00:21;17.40;97.50